createdAt,value
2023-04-24T00:00:43.229Z,0.00
2023-04-24T00:01:43.226Z,0.00
2023-04-24T00:02:43.369Z,0.00
2023-04-24T00:03:43.354Z,0.00
2023-04-24T00:04:43.312Z,0.00
2023-04-24T00:05:43.141Z,0.00
2023-04-24T00:06:43.130Z,0.00
2023-04-24T00:07:43.184Z,0.00
2023-04-24T00:08:43.117Z,0.00
2023-04-24T00:09:43.385Z,0.00
2023-04-24T00:10:43.100Z,0.00
2023-04-24T00:11:43.116Z,0.00
2023-04-24T00:12:43.121Z,0.00
2023-04-24T00:13:43.056Z,0.00
2023-04-24T00:14:43.041Z,0.00
2023-04-24T00:15:43.030Z,0.00
2023-04-24T00:16:43.070Z,0.00
2023-04-24T00:17:43.049Z,0.00
2023-04-24T00:18:42.996Z,0.00
2023-04-24T00:19:43.278Z,0.00
2023-04-24T00:20:42.999Z,0.00
2023-04-24T00:21:43.024Z,0.00
2023-04-24T00:22:42.963Z,0.00
2023-04-24T00:23:42.990Z,0.00
2023-04-24T00:24:42.933Z,0.00
2023-04-24T00:25:42.936Z,0.00
2023-04-24T00:26:42.909Z,0.00
2023-04-24T00:27:42.906Z,0.00
2023-04-24T00:28:42.951Z,0.00
2023-04-24T00:29:43.208Z,0.00
2023-04-24T00:30:42.883Z,0.00
2023-04-24T00:31:42.884Z,0.00
2023-04-24T00:32:42.906Z,0.00
2023-04-24T00:33:42.838Z,0.00
2023-04-24T00:34:42.930Z,0.00
2023-04-24T00:35:42.929Z,0.00
2023-04-24T00:36:42.801Z,0.00
2023-04-24T00:37:42.821Z,0.00
2023-04-24T00:38:42.780Z,0.00
2023-04-24T00:39:42.979Z,0.00
2023-04-24T00:40:42.759Z,0.00
2023-04-24T00:41:42.754Z,0.00
2023-04-24T00:42:42.738Z,0.00
2023-04-24T00:43:42.756Z,0.00
2023-04-24T00:44:42.735Z,0.00
2023-04-24T00:45:42.705Z,0.00
2023-04-24T00:46:42.853Z,0.00
2023-04-24T00:47:42.803Z,0.00
2023-04-24T00:48:42.670Z,0.00
2023-04-24T00:49:42.900Z,0.00
2023-04-24T00:50:42.646Z,0.00
2023-04-24T00:51:42.637Z,0.00
2023-04-24T00:52:42.734Z,0.00
2023-04-24T00:53:42.640Z,0.00
2023-04-24T00:54:42.604Z,0.00
2023-04-24T00:55:42.610Z,0.00
2023-04-24T00:56:42.603Z,0.00
2023-04-24T00:57:42.604Z,0.00
2023-04-24T00:58:42.569Z,0.00
2023-04-24T00:59:42.794Z,0.00
2023-04-24T01:00:42.534Z,0.00
2023-04-24T01:01:42.567Z,0.00
2023-04-24T01:02:42.603Z,0.00
2023-04-24T01:03:42.735Z,0.00
2023-04-24T01:04:42.640Z,0.00
2023-04-24T01:05:42.490Z,0.00
2023-04-24T01:06:42.484Z,0.00
2023-04-24T01:07:42.489Z,0.00
2023-04-24T01:08:42.463Z,0.00
2023-04-24T01:09:42.767Z,0.00
2023-04-24T01:10:42.495Z,0.00
2023-04-24T01:11:42.436Z,0.00
2023-04-24T01:12:42.468Z,0.00
2023-04-24T01:14:03.432Z,0.00
2023-04-24T01:14:42.408Z,0.00
2023-04-24T01:15:42.474Z,0.00
2023-04-24T01:16:42.392Z,0.00
2023-04-24T01:17:42.441Z,0.00
2023-04-24T01:18:42.360Z,0.00
2023-04-24T01:19:42.593Z,0.00
2023-04-24T01:20:42.336Z,0.00
2023-04-24T01:21:42.326Z,0.00
2023-04-24T01:22:42.326Z,0.00
2023-04-24T01:23:42.327Z,0.00
2023-04-24T01:24:42.298Z,0.00
2023-04-24T01:25:42.277Z,0.00
2023-04-24T01:26:42.270Z,0.00
2023-04-24T01:27:42.314Z,0.00
2023-04-24T01:28:42.244Z,0.00
2023-04-24T01:29:42.591Z,0.00
2023-04-24T01:30:42.237Z,0.00
2023-04-24T01:31:42.299Z,0.00
2023-04-24T01:32:42.240Z,0.00
2023-04-24T01:33:42.193Z,0.00
2023-04-24T01:34:42.192Z,0.00
2023-04-24T01:35:42.184Z,0.00
2023-04-24T01:36:42.231Z,0.00
2023-04-24T01:37:42.159Z,0.00
2023-04-24T01:38:42.157Z,0.00
2023-04-24T01:39:42.522Z,0.00
2023-04-24T01:40:42.113Z,0.00
2023-04-24T01:41:42.121Z,0.00
2023-04-24T01:42:42.126Z,0.00
2023-04-24T01:43:42.086Z,0.00
2023-04-24T01:44:42.123Z,0.00
2023-04-24T01:45:42.078Z,0.00
2023-04-24T01:46:42.114Z,0.00
2023-04-24T01:47:42.084Z,0.00
2023-04-24T01:48:42.032Z,0.00
2023-04-24T01:49:42.205Z,0.00
2023-04-24T01:50:42.004Z,0.00
2023-04-24T01:51:41.993Z,0.00
2023-04-24T01:52:42.014Z,0.00
2023-04-24T01:53:41.975Z,0.00
2023-04-24T01:54:41.966Z,0.00
2023-04-24T01:55:41.954Z,0.00
2023-04-24T01:56:41.951Z,0.00
2023-04-24T01:57:42.034Z,0.00
2023-04-24T01:58:41.930Z,0.00
2023-04-24T01:59:42.304Z,0.00
2023-04-24T02:00:42.061Z,0.00
2023-04-24T02:01:41.928Z,0.00
2023-04-24T02:02:42.122Z,0.00
2023-04-24T02:03:41.998Z,0.00
2023-04-24T02:04:41.915Z,0.00
2023-04-24T02:05:41.933Z,0.00
2023-04-24T02:06:41.887Z,0.00
2023-04-24T02:07:41.874Z,0.00
2023-04-24T02:08:41.823Z,0.00
2023-04-24T02:09:42.019Z,0.00
2023-04-24T02:10:41.797Z,0.00
2023-04-24T02:11:41.785Z,0.00
2023-04-24T02:12:41.866Z,0.00
2023-04-24T02:13:41.763Z,0.00
2023-04-24T02:14:41.737Z,0.00
2023-04-24T02:15:41.800Z,0.00
2023-04-24T02:16:41.804Z,0.00
2023-04-24T02:17:41.837Z,0.00
2023-04-24T02:18:41.694Z,0.00
2023-04-24T02:19:41.864Z,0.00
2023-04-24T02:20:41.675Z,0.00
2023-04-24T02:21:41.697Z,0.00
2023-04-24T02:22:41.718Z,0.00
2023-04-24T02:23:41.666Z,0.00
2023-04-24T02:24:41.629Z,0.00
2023-04-24T02:25:41.622Z,0.00
2023-04-24T02:26:41.686Z,0.00
2023-04-24T02:27:41.646Z,0.00
2023-04-24T02:28:41.602Z,0.00
2023-04-24T02:29:41.897Z,0.00
2023-04-24T02:30:41.566Z,0.00
2023-04-24T02:31:41.649Z,0.00
2023-04-24T02:32:41.597Z,0.00
2023-04-24T02:33:41.553Z,0.00
2023-04-24T02:34:41.533Z,0.00
2023-04-24T02:35:41.577Z,0.00
2023-04-24T02:36:41.550Z,0.00
2023-04-24T02:37:41.503Z,0.00
2023-04-24T02:38:41.480Z,0.00
2023-04-24T02:39:41.661Z,0.00
2023-04-24T02:40:41.494Z,0.00
2023-04-24T02:41:41.477Z,0.00
2023-04-24T02:42:41.447Z,0.00
2023-04-24T02:43:41.427Z,0.00
2023-04-24T02:44:41.428Z,0.00
2023-04-24T02:45:41.476Z,0.00
2023-04-24T02:46:41.410Z,0.00
2023-04-24T02:47:41.405Z,0.00
2023-04-24T02:48:41.385Z,0.00
2023-04-24T02:49:41.602Z,0.00
2023-04-24T02:50:41.435Z,0.00
2023-04-24T02:51:41.376Z,0.00
2023-04-24T02:52:41.342Z,0.00
2023-04-24T02:53:41.316Z,0.00
2023-04-24T02:54:41.314Z,0.00
2023-04-24T02:55:41.304Z,0.00
2023-04-24T02:56:41.336Z,0.00
2023-04-24T02:57:41.288Z,0.00
2023-04-24T02:58:41.259Z,0.00
2023-04-24T02:59:41.437Z,0.00
2023-04-24T03:00:41.260Z,0.00
2023-04-24T03:01:41.296Z,0.00
2023-04-24T03:02:41.398Z,0.00
2023-04-24T03:03:41.421Z,0.00
2023-04-24T03:04:41.344Z,0.00
2023-04-24T03:05:41.200Z,0.00
2023-04-24T03:06:41.189Z,0.00
2023-04-24T03:07:41.159Z,0.00
2023-04-24T03:08:41.160Z,0.00
2023-04-24T03:09:41.515Z,0.00
2023-04-24T03:10:41.132Z,0.00
2023-04-24T03:11:41.148Z,0.00
2023-04-24T03:12:41.140Z,0.00
2023-04-24T03:13:41.106Z,0.00
2023-04-24T03:14:41.089Z,0.00
2023-04-24T03:15:41.131Z,0.00
2023-04-24T03:16:41.332Z,0.00
2023-04-24T03:17:41.103Z,0.00
2023-04-24T03:18:41.045Z,0.00
2023-04-24T03:19:41.244Z,0.00
2023-04-24T03:20:41.071Z,0.00
2023-04-24T03:21:41.013Z,0.00
2023-04-24T03:22:41.015Z,0.00
2023-04-24T03:23:40.999Z,0.00
2023-04-24T03:24:40.976Z,0.00
2023-04-24T03:25:40.965Z,0.00
2023-04-24T03:26:40.981Z,0.00
2023-04-24T03:27:40.962Z,0.00
2023-04-24T03:28:40.937Z,0.00
2023-04-24T03:29:41.166Z,0.00
2023-04-24T03:30:40.947Z,0.00
2023-04-24T03:31:41.052Z,0.00
2023-04-24T03:32:41.022Z,0.00
2023-04-24T03:33:40.939Z,0.00
2023-04-24T03:34:40.877Z,0.00
2023-04-24T03:35:40.873Z,0.00
2023-04-24T03:36:40.879Z,0.00
2023-04-24T03:37:40.839Z,0.00
2023-04-24T03:38:40.835Z,0.00
2023-04-24T03:39:41.104Z,0.00
2023-04-24T03:40:40.822Z,0.00
2023-04-24T03:41:40.813Z,0.00
2023-04-24T03:42:40.804Z,0.00
2023-04-24T03:43:40.795Z,0.00
2023-04-24T03:44:40.788Z,0.00
2023-04-24T03:45:40.754Z,0.00
2023-04-24T03:46:40.850Z,4.00
2023-04-24T03:47:40.769Z,4.00
2023-04-24T03:48:40.731Z,0.00
2023-04-24T03:49:40.978Z,4.00
2023-04-24T03:50:40.697Z,4.00
2023-04-24T03:51:40.728Z,8.00
2023-04-24T03:52:40.682Z,8.00
2023-04-24T03:53:40.712Z,12.00
2023-04-24T03:54:40.653Z,12.00
2023-04-24T03:55:40.706Z,12.00
2023-04-24T03:56:40.657Z,16.00
2023-04-24T03:57:40.621Z,16.00
2023-04-24T03:58:40.623Z,16.00
2023-04-24T03:59:40.828Z,20.00
2023-04-24T04:00:40.585Z,24.00
2023-04-24T04:01:42.176Z,28.00
2023-04-24T04:02:40.684Z,32.00
2023-04-24T04:03:40.783Z,36.00
2023-04-24T04:04:40.782Z,44.00
2023-04-24T04:05:40.536Z,44.00
2023-04-24T04:06:40.534Z,48.00
2023-04-24T04:07:40.617Z,52.00
2023-04-24T04:08:40.504Z,60.00
2023-04-24T04:09:40.603Z,68.00
2023-04-24T04:10:40.521Z,76.00
2023-04-24T04:11:40.856Z,92.00
2023-04-24T04:12:40.462Z,116.00
2023-04-24T04:13:40.452Z,136.00
2023-04-24T04:14:40.460Z,148.00
2023-04-24T04:15:40.427Z,176.00
2023-04-24T04:16:40.501Z,204.00
2023-04-24T04:17:40.433Z,232.00
2023-04-24T04:18:40.405Z,260.00
2023-04-24T04:19:40.578Z,292.00
2023-04-24T04:20:40.379Z,328.00
2023-04-24T04:21:40.398Z,360.00
2023-04-24T04:22:42.651Z,404.00
2023-04-24T04:23:40.399Z,428.00
2023-04-24T04:24:40.323Z,452.00
2023-04-24T04:25:40.409Z,484.00
2023-04-24T04:26:40.315Z,524.00
2023-04-24T04:27:40.307Z,588.00
2023-04-24T04:28:40.288Z,652.00
2023-04-24T04:29:40.372Z,700.00
2023-04-24T04:30:40.285Z,696.00
2023-04-24T04:31:40.328Z,692.00
2023-04-24T04:32:40.267Z,712.00
2023-04-24T04:33:40.375Z,740.00
2023-04-24T04:34:40.270Z,792.00
2023-04-24T04:35:40.217Z,884.00
2023-04-24T04:36:40.203Z,976.00
2023-04-24T04:37:40.246Z,1076.00
2023-04-24T04:38:41.169Z,1216.00
2023-04-24T04:39:40.346Z,1348.00
2023-04-24T04:40:40.155Z,1416.00
2023-04-24T04:41:40.327Z,1516.00
2023-04-24T04:42:40.174Z,1676.00
2023-04-24T04:43:40.133Z,1688.00
2023-04-24T04:44:40.107Z,1532.00
2023-04-24T04:45:40.174Z,1376.00
2023-04-24T04:46:40.111Z,1284.00
2023-04-24T04:47:40.128Z,1284.00
2023-04-24T04:48:40.062Z,1272.00
2023-04-24T04:49:40.359Z,1248.00
2023-04-24T04:50:40.048Z,1280.00
2023-04-24T04:51:42.392Z,1400.00
2023-04-24T04:52:40.044Z,1724.00
2023-04-24T04:53:40.017Z,2016.00
2023-04-24T04:54:40.142Z,2144.00
2023-04-24T04:55:40.011Z,2192.00
2023-04-24T04:56:39.995Z,2228.00
2023-04-24T04:57:39.987Z,2528.00
2023-04-24T04:58:39.957Z,2852.00
2023-04-24T04:59:39.968Z,3060.00
2023-04-24T05:00:39.930Z,3204.00
2023-04-24T05:01:40.037Z,3300.00
2023-04-24T05:02:40.068Z,3348.00
2023-04-24T05:03:40.479Z,3348.00
2023-04-24T05:04:40.115Z,3316.00
2023-04-24T05:05:39.900Z,3276.00
2023-04-24T05:06:40.020Z,3208.00
2023-04-24T05:07:39.880Z,3148.00
2023-04-24T05:08:39.857Z,3104.00
2023-04-24T05:09:39.842Z,3152.00
2023-04-24T05:10:39.836Z,3268.00
2023-04-24T05:11:39.963Z,3364.00
2023-04-24T05:12:39.862Z,3472.00
2023-04-24T05:13:40.940Z,3572.00
2023-04-24T05:14:39.831Z,3740.00
2023-04-24T05:15:39.782Z,3960.00
2023-04-24T05:16:39.836Z,4104.00
2023-04-24T05:17:39.791Z,3928.00
2023-04-24T05:18:39.746Z,3808.00
2023-04-24T05:19:39.956Z,4104.00
2023-04-24T05:20:39.734Z,4348.00
2023-04-24T05:21:39.755Z,4560.00
2023-04-24T05:22:39.713Z,5204.00
2023-04-24T05:23:39.713Z,6124.00
2023-04-24T05:24:39.672Z,6548.00
2023-04-24T05:25:39.686Z,6204.00
2023-04-24T05:26:39.682Z,5408.00
2023-04-24T05:27:39.658Z,4344.00
2023-04-24T05:28:39.631Z,3380.00
2023-04-24T05:29:39.636Z,2848.00
2023-04-24T05:30:39.624Z,2464.00
2023-04-24T05:31:39.702Z,2324.00
2023-04-24T05:32:39.624Z,2308.00
2023-04-24T05:33:39.643Z,2136.00
2023-04-24T05:34:39.574Z,2228.00
2023-04-24T05:35:39.561Z,2284.00
2023-04-24T05:36:39.567Z,2452.00
2023-04-24T05:37:39.574Z,2820.00
2023-04-24T05:38:39.531Z,3340.00
2023-04-24T05:39:39.673Z,4072.00
2023-04-24T05:40:39.515Z,4320.00
2023-04-24T05:41:39.524Z,3708.00
2023-04-24T05:42:39.558Z,3196.00
2023-04-24T05:43:39.486Z,2736.00
2023-04-24T05:44:39.492Z,2428.00
2023-04-24T05:45:39.450Z,2144.00
2023-04-24T05:46:39.557Z,1952.00
2023-04-24T05:47:39.475Z,1908.00
2023-04-24T05:48:39.492Z,2064.00
2023-04-24T05:49:39.446Z,2020.00
2023-04-24T05:50:39.402Z,1876.00
2023-04-24T05:51:39.420Z,2144.00
2023-04-24T05:52:39.420Z,2520.00
2023-04-24T05:53:39.376Z,2952.00
2023-04-24T05:54:39.349Z,3380.00
2023-04-24T05:55:39.380Z,3304.00
2023-04-24T05:56:40.727Z,3116.00
2023-04-24T05:57:39.328Z,2972.00
2023-04-24T05:58:39.309Z,2968.00
2023-04-24T05:59:39.352Z,2708.00
2023-04-24T06:00:39.303Z,2484.00
2023-04-24T06:01:39.314Z,2620.00
2023-04-24T06:02:39.376Z,2728.00
2023-04-24T06:03:39.461Z,2652.00
2023-04-24T06:04:39.477Z,3056.00
2023-04-24T06:05:39.297Z,3320.00
2023-04-24T06:06:39.229Z,3216.00
2023-04-24T06:07:39.288Z,3352.00
2023-04-24T06:08:39.210Z,2900.00
2023-04-24T06:09:39.201Z,2656.00
2023-04-24T06:10:39.246Z,2516.00
2023-04-24T06:11:39.187Z,2364.00
2023-04-24T06:12:39.167Z,2440.00
2023-04-24T06:13:39.157Z,3024.00
2023-04-24T06:14:39.191Z,3060.00
2023-04-24T06:15:39.133Z,2840.00
2023-04-24T06:16:39.195Z,2984.00
2023-04-24T06:17:39.186Z,3564.00
2023-04-24T06:18:39.089Z,3924.00
2023-04-24T06:19:39.093Z,3960.00
2023-04-24T06:20:39.072Z,3628.00
2023-04-24T06:21:39.076Z,3652.00
2023-04-24T06:22:39.105Z,4132.00
2023-04-24T06:23:39.217Z,4496.00
2023-04-24T06:24:39.047Z,5152.00
2023-04-24T06:25:39.055Z,5540.00
2023-04-24T06:26:39.154Z,5440.00
2023-04-24T06:27:39.014Z,5640.00
2023-04-24T06:28:39.072Z,5396.00
2023-04-24T06:29:38.983Z,4960.00
2023-04-24T06:30:39.057Z,4860.00
2023-04-24T06:31:39.041Z,4344.00
2023-04-24T06:32:39.291Z,3680.00
2023-04-24T06:33:38.993Z,3324.00
2023-04-24T06:34:38.973Z,3044.00
2023-04-24T06:35:38.953Z,2916.00
2023-04-24T06:36:38.943Z,3044.00
2023-04-24T06:37:38.913Z,3396.00
2023-04-24T06:38:38.922Z,3588.00
2023-04-24T06:39:38.940Z,3328.00
2023-04-24T06:40:39.280Z,2836.00
2023-04-24T06:41:38.970Z,2824.00
2023-04-24T06:42:38.837Z,2740.00
2023-04-24T06:43:38.833Z,2796.00
2023-04-24T06:44:38.856Z,2372.00
2023-04-24T06:45:38.964Z,2200.00
2023-04-24T06:46:41.011Z,2848.00
2023-04-24T06:47:38.822Z,3456.00
2023-04-24T06:48:38.781Z,3692.00
2023-04-24T06:49:38.796Z,3916.00
2023-04-24T06:50:38.905Z,3944.00
2023-04-24T06:51:38.824Z,3972.00
2023-04-24T06:52:38.784Z,4108.00
2023-04-24T06:53:38.734Z,4256.00
2023-04-24T06:54:39.144Z,4508.00
2023-04-24T06:55:38.735Z,4812.00
2023-04-24T06:56:38.721Z,4900.00
2023-04-24T06:57:38.709Z,5100.00
2023-04-24T06:58:38.721Z,5488.00
2023-04-24T06:59:38.748Z,5892.00
2023-04-24T07:00:38.645Z,6428.00
2023-04-24T07:01:38.714Z,6224.00
2023-04-24T07:02:38.891Z,6168.00
2023-04-24T07:03:38.818Z,6916.00
2023-04-24T07:04:38.707Z,7340.00
2023-04-24T07:05:38.597Z,7628.00
2023-04-24T07:06:38.614Z,8268.00
2023-04-24T07:07:38.629Z,8328.00
2023-04-24T07:08:38.588Z,8848.00
2023-04-24T07:09:38.693Z,8208.00
2023-04-24T07:10:38.527Z,7528.00
2023-04-24T07:11:38.595Z,7016.00
2023-04-24T07:12:38.528Z,7016.00
2023-04-24T07:13:38.542Z,6596.00
2023-04-24T07:14:38.498Z,6060.00
2023-04-24T07:15:38.526Z,5572.00
2023-04-24T07:16:38.654Z,4836.00
2023-04-24T07:17:38.519Z,5044.00
2023-04-24T07:18:38.498Z,5988.00
2023-04-24T07:19:38.444Z,5852.00
2023-04-24T07:20:38.479Z,5816.00
2023-04-24T07:21:38.439Z,5696.00
2023-04-24T07:22:38.419Z,6020.00
2023-04-24T07:23:38.425Z,6076.00
2023-04-24T07:24:38.554Z,6896.00
2023-04-24T07:25:38.380Z,6888.00
2023-04-24T07:26:38.375Z,5508.00
2023-04-24T07:27:38.409Z,5472.00
2023-04-24T07:28:38.370Z,5660.00
2023-04-24T07:29:38.340Z,6140.00
2023-04-24T07:30:38.319Z,6436.00
2023-04-24T07:31:38.356Z,6564.00
2023-04-24T07:32:38.400Z,6596.00
2023-04-24T07:33:38.300Z,6220.00
2023-04-24T07:34:38.335Z,5768.00
2023-04-24T07:35:38.315Z,5916.00
2023-04-24T07:36:38.291Z,5288.00
2023-04-24T07:37:38.252Z,5228.00
2023-04-24T07:38:38.255Z,5536.00
2023-04-24T07:39:38.231Z,5792.00
2023-04-24T07:40:38.212Z,5616.00
2023-04-24T07:41:38.315Z,5808.00
2023-04-24T07:42:38.186Z,6596.00
2023-04-24T07:43:38.205Z,6624.00
2023-04-24T07:44:38.180Z,6524.00
2023-04-24T07:45:38.250Z,6660.00
2023-04-24T07:46:38.223Z,6608.00
2023-04-24T07:47:38.181Z,7096.00
2023-04-24T07:48:38.146Z,7596.00
2023-04-24T07:49:38.127Z,7620.00
2023-04-24T07:50:38.113Z,7028.00
2023-04-24T07:51:38.137Z,6212.00
2023-04-24T07:52:38.144Z,5604.00
2023-04-24T07:53:38.109Z,6540.00
2023-04-24T07:54:38.060Z,7984.00
2023-04-24T07:55:38.096Z,7840.00
2023-04-24T07:56:38.057Z,6836.00
2023-04-24T07:57:38.164Z,5736.00
2023-04-24T07:58:38.024Z,4588.00
2023-04-24T07:59:38.053Z,3960.00
2023-04-24T08:00:38.008Z,3152.00
2023-04-24T08:01:38.010Z,2640.00
2023-04-24T08:02:38.122Z,2772.00
2023-04-24T08:03:38.063Z,4260.00
2023-04-24T08:04:38.244Z,5632.00
2023-04-24T08:05:40.243Z,5804.00
2023-04-24T08:06:38.055Z,6016.00
2023-04-24T08:07:38.272Z,6588.00
2023-04-24T08:08:37.942Z,7188.00
2023-04-24T08:09:37.959Z,6916.00
2023-04-24T08:10:37.958Z,6904.00
2023-04-24T08:11:37.947Z,6300.00
2023-04-24T08:12:37.892Z,6600.00
2023-04-24T08:13:37.876Z,6548.00
2023-04-24T08:14:37.849Z,5992.00
2023-04-24T08:15:37.840Z,6120.00
2023-04-24T08:16:38.120Z,6392.00
2023-04-24T08:17:37.819Z,7376.00
2023-04-24T08:18:37.815Z,8568.00
2023-04-24T08:19:37.795Z,9680.00
2023-04-24T08:20:37.817Z,9820.00
2023-04-24T08:21:37.781Z,9652.00
2023-04-24T08:22:37.827Z,8476.00
2023-04-24T08:23:37.798Z,6344.00
2023-04-24T08:24:37.850Z,6788.00
2023-04-24T08:25:37.794Z,6320.00
2023-04-24T08:26:37.732Z,6312.00
2023-04-24T08:27:37.721Z,6408.00
2023-04-24T08:28:37.718Z,6176.00
2023-04-24T08:29:37.701Z,6852.00
2023-04-24T08:30:37.665Z,7156.00
2023-04-24T08:31:37.758Z,7064.00
2023-04-24T08:32:37.715Z,7000.00
2023-04-24T08:33:37.650Z,7708.00
2023-04-24T08:34:37.634Z,8900.00
2023-04-24T08:35:37.881Z,8160.00
2023-04-24T08:36:46.591Z,8828.00
2023-04-24T08:37:38.628Z,7960.00
2023-04-24T08:38:37.586Z,8444.00
2023-04-24T08:39:37.591Z,6488.00
2023-04-24T08:40:37.569Z,4672.00
2023-04-24T08:41:37.648Z,5888.00
2023-04-24T08:42:37.547Z,6188.00
2023-04-24T08:43:37.582Z,8212.00
2023-04-24T08:44:37.530Z,8488.00
2023-04-24T08:45:37.626Z,8656.00
2023-04-24T08:46:37.576Z,7856.00
2023-04-24T08:47:37.566Z,7976.00
2023-04-24T08:48:37.490Z,8184.00
2023-04-24T08:49:37.465Z,8472.00
2023-04-24T08:50:37.485Z,8132.00
2023-04-24T08:51:37.460Z,7188.00
2023-04-24T08:52:37.446Z,6888.00
2023-04-24T08:53:37.438Z,6452.00
2023-04-24T08:54:37.444Z,6768.00
2023-04-24T08:55:37.405Z,7660.00
2023-04-24T08:56:37.409Z,9268.00
2023-04-24T08:57:37.395Z,11016.00
2023-04-24T08:58:37.463Z,12264.00
2023-04-24T08:59:37.385Z,13264.00
2023-04-24T09:00:37.353Z,13380.00
2023-04-24T09:01:37.431Z,13556.00
2023-04-24T09:02:37.574Z,12732.00
2023-04-24T09:03:37.571Z,11320.00
2023-04-24T09:04:37.480Z,10028.00
2023-04-24T09:05:37.297Z,9196.00
2023-04-24T09:06:37.300Z,8456.00
2023-04-24T09:07:37.302Z,7992.00
2023-04-24T09:08:37.285Z,7260.00
2023-04-24T09:09:37.255Z,7028.00
2023-04-24T09:10:37.249Z,6992.00
2023-04-24T09:11:37.274Z,7568.00
2023-04-24T09:12:37.278Z,7752.00
2023-04-24T09:13:37.310Z,7320.00
2023-04-24T09:14:37.249Z,7212.00
2023-04-24T09:15:37.190Z,7316.00
2023-04-24T09:16:37.264Z,6864.00
2023-04-24T09:17:37.239Z,6944.00
2023-04-24T09:18:37.178Z,7188.00
2023-04-24T09:19:37.154Z,7348.00
2023-04-24T09:20:37.244Z,7252.00
2023-04-24T09:21:37.155Z,7440.00
2023-04-24T09:22:37.129Z,8032.00
2023-04-24T09:23:37.106Z,8216.00
2023-04-24T09:24:37.109Z,8516.00
2023-04-24T09:25:37.116Z,8528.00
2023-04-24T09:26:37.082Z,8660.00
2023-04-24T09:27:37.068Z,8912.00
2023-04-24T09:28:37.046Z,8968.00
2023-04-24T09:29:37.097Z,9588.00
2023-04-24T09:30:37.045Z,10176.00
2023-04-24T09:31:37.062Z,10396.00
2023-04-24T09:32:37.141Z,11032.00
2023-04-24T09:33:37.001Z,11656.00
2023-04-24T09:34:37.065Z,12552.00
2023-04-24T09:35:37.003Z,13228.00
2023-04-24T09:36:36.978Z,13488.00
2023-04-24T09:37:36.988Z,14840.00
2023-04-24T09:38:36.956Z,15764.00
2023-04-24T09:39:36.958Z,16008.00
2023-04-24T09:40:37.579Z,15256.00
2023-04-24T09:41:37.027Z,15728.00
2023-04-24T09:42:36.908Z,16624.00
2023-04-24T09:43:36.883Z,18176.00
2023-04-24T09:44:36.905Z,19168.00
2023-04-24T09:45:36.890Z,19936.00
2023-04-24T09:46:36.985Z,19744.00
2023-04-24T09:47:36.952Z,19712.00
2023-04-24T09:48:36.849Z,20384.00
2023-04-24T09:49:36.820Z,19712.00
2023-04-24T09:50:36.958Z,18880.00
2023-04-24T09:51:36.889Z,18336.00
2023-04-24T09:52:36.808Z,18176.00
2023-04-24T09:53:36.775Z,18816.00
2023-04-24T09:54:36.779Z,19520.00
2023-04-24T09:55:36.753Z,20160.00
2023-04-24T09:56:36.784Z,20384.00
2023-04-24T09:57:36.732Z,20192.00
2023-04-24T09:58:36.808Z,19680.00
2023-04-24T09:59:37.533Z,18976.00
2023-04-24T10:00:36.752Z,19168.00
2023-04-24T10:01:36.988Z,19360.00
2023-04-24T10:02:36.882Z,19904.00
2023-04-24T10:03:36.787Z,21280.00
2023-04-24T10:04:36.783Z,22528.00
2023-04-24T10:05:36.663Z,23328.00
2023-04-24T10:06:36.670Z,22656.00
2023-04-24T10:07:36.619Z,21248.00
2023-04-24T10:08:36.654Z,19840.00
2023-04-24T10:09:36.855Z,18240.00
2023-04-24T10:10:36.738Z,17344.00
2023-04-24T10:11:36.661Z,16480.00
2023-04-24T10:12:36.653Z,15800.00
2023-04-24T10:13:36.696Z,15376.00
2023-04-24T10:14:36.559Z,15184.00
2023-04-24T10:15:36.614Z,15868.00
2023-04-24T10:16:36.552Z,16992.00
2023-04-24T10:17:36.522Z,17408.00
2023-04-24T10:18:36.523Z,18496.00
2023-04-24T10:19:36.511Z,19744.00
2023-04-24T10:20:36.500Z,20576.00
2023-04-24T10:21:36.498Z,21536.00
2023-04-24T10:22:36.469Z,22944.00
2023-04-24T10:23:36.460Z,24960.00
2023-04-24T10:24:36.452Z,27104.00
2023-04-24T10:25:36.445Z,28576.00
2023-04-24T10:26:36.451Z,29920.00
2023-04-24T10:27:36.421Z,31968.00
2023-04-24T10:28:36.566Z,34912.00
2023-04-24T10:29:36.393Z,37408.00
2023-04-24T10:30:36.394Z,39392.00
2023-04-24T10:31:36.399Z,41312.00
2023-04-24T10:32:36.404Z,42048.00
2023-04-24T10:33:36.347Z,41120.00
2023-04-24T10:34:36.340Z,38592.00
2023-04-24T10:35:36.324Z,35968.00
2023-04-24T10:36:36.346Z,35136.00
2023-04-24T10:37:36.316Z,35328.00
2023-04-24T10:38:36.335Z,35936.00
2023-04-24T10:39:36.312Z,28224.00
2023-04-24T10:40:36.347Z,33312.00
2023-04-24T10:41:36.271Z,32032.00
2023-04-24T10:42:36.261Z,25248.00
2023-04-24T10:43:36.310Z,22240.00
2023-04-24T10:44:36.360Z,17504.00
2023-04-24T10:45:36.249Z,16320.00
2023-04-24T10:46:36.263Z,20704.00
2023-04-24T10:47:36.318Z,25696.00
2023-04-24T10:48:36.208Z,27200.00
2023-04-24T10:49:36.230Z,27968.00
2023-04-24T10:50:36.273Z,26112.00
2023-04-24T10:51:36.160Z,28480.00
2023-04-24T10:52:36.151Z,28192.00
2023-04-24T10:53:36.135Z,27648.00
2023-04-24T10:54:36.152Z,25984.00
2023-04-24T10:55:36.114Z,24384.00
2023-04-24T10:56:36.113Z,22880.00
2023-04-24T10:57:36.103Z,23008.00
2023-04-24T10:58:36.086Z,23296.00
2023-04-24T10:59:36.071Z,23872.00
2023-04-24T11:00:36.257Z,26464.00
2023-04-24T11:01:36.251Z,26368.00
2023-04-24T11:02:36.219Z,22592.00
2023-04-24T11:03:36.416Z,18592.00
2023-04-24T11:04:36.062Z,14200.00
2023-04-24T11:05:35.998Z,12412.00
2023-04-24T11:06:36.145Z,10508.00
2023-04-24T11:07:35.995Z,9604.00
2023-04-24T11:08:35.974Z,10480.00
2023-04-24T11:09:35.965Z,10392.00
2023-04-24T11:10:35.970Z,10764.00
2023-04-24T11:11:35.968Z,13140.00
2023-04-24T11:12:35.922Z,15724.00
2023-04-24T11:13:35.932Z,19520.00
2023-04-24T11:14:35.906Z,23264.00
2023-04-24T11:15:35.912Z,25024.00
2023-04-24T11:16:35.958Z,26016.00
2023-04-24T11:17:35.882Z,24928.00
2023-04-24T11:18:35.856Z,19680.00
2023-04-24T11:19:35.855Z,16928.00
2023-04-24T11:20:35.894Z,16088.00
2023-04-24T11:21:35.840Z,19328.00
2023-04-24T11:22:35.808Z,25184.00
2023-04-24T11:23:35.815Z,28608.00
2023-04-24T11:24:35.789Z,33472.00
2023-04-24T11:25:35.796Z,38336.00
2023-04-24T11:26:35.786Z,39680.00
2023-04-24T11:27:35.813Z,35072.00
2023-04-24T11:28:35.758Z,29152.00
2023-04-24T11:29:35.748Z,31168.00
2023-04-24T11:30:35.772Z,28224.00
2023-04-24T11:31:35.790Z,25632.00
2023-04-24T11:32:35.762Z,28320.00
2023-04-24T11:33:35.700Z,29312.00
2023-04-24T11:34:35.716Z,29120.00
2023-04-24T11:35:36.795Z,22400.00
2023-04-24T11:36:35.667Z,17696.00
2023-04-24T11:37:35.664Z,18848.00
2023-04-24T11:38:35.682Z,31648.00
2023-04-24T11:39:35.632Z,21248.00
2023-04-24T11:40:35.622Z,17152.00
2023-04-24T11:41:35.627Z,14580.00
2023-04-24T11:42:35.597Z,11336.00
2023-04-24T11:43:35.622Z,8960.00
2023-04-24T11:44:35.688Z,7832.00
2023-04-24T11:45:35.808Z,9044.00
2023-04-24T11:46:35.681Z,14044.00
2023-04-24T11:47:35.558Z,27904.00
2023-04-24T11:48:35.532Z,39104.00
2023-04-24T11:49:35.529Z,43648.00
2023-04-24T11:50:35.512Z,44160.00
2023-04-24T11:51:44.552Z,46368.00
2023-04-24T11:52:36.484Z,42720.00
2023-04-24T11:53:35.548Z,37664.00
2023-04-24T11:54:35.466Z,33472.00
2023-04-24T11:55:35.452Z,33312.00
2023-04-24T11:56:35.479Z,36640.00
2023-04-24T11:57:35.455Z,36800.00
2023-04-24T11:58:35.435Z,32832.00
2023-04-24T11:59:35.417Z,30688.00
2023-04-24T12:00:35.485Z,31456.00
2023-04-24T12:01:35.449Z,34944.00
2023-04-24T12:02:37.498Z,40896.00
2023-04-24T12:03:35.629Z,43008.00
2023-04-24T12:04:36.102Z,41824.00
2023-04-24T12:05:35.609Z,28288.00
2023-04-24T12:06:35.346Z,24352.00
2023-04-24T12:07:35.342Z,22432.00
2023-04-24T12:08:36.639Z,19456.00
2023-04-24T12:09:35.306Z,17344.00
2023-04-24T12:10:35.356Z,13816.00
2023-04-24T12:11:35.356Z,11588.00
2023-04-24T12:12:35.289Z,9196.00
2023-04-24T12:13:35.260Z,9140.00
2023-04-24T12:14:35.272Z,10316.00
2023-04-24T12:15:35.318Z,9972.00
2023-04-24T12:16:35.311Z,8968.00
2023-04-24T12:17:35.336Z,7492.00
2023-04-24T12:18:35.211Z,6168.00
2023-04-24T12:19:35.212Z,7272.00
2023-04-24T12:20:35.261Z,9036.00
2023-04-24T12:21:35.205Z,9408.00
2023-04-24T12:22:35.162Z,10124.00
2023-04-24T12:23:35.265Z,11524.00